Time;durP1;ratioP1;P1;durP2;ratioP2;P2;SDS_P1;SDS_P2;PMS_P1;PMS_P2;Temp;Humidity;BMP_temperature;BMP_pressure;BME280_temperature;BME280_humidity;BME280_pressure;Samples;Min_cycle;Max_cycle;Signal;HPM_P1;HPM_P2
2022/04/18 00:01:27;;;;;;;23.00;18.42;;;;;;;9.86;44.07;101968.75;7394925;19;20015;-61
2022/04/18 00:03:59;;;;;;;23.85;17.80;;;;;;;9.94;43.69;101973.81;7390893;19;20014;-57
2022/04/18 00:06:28;;;;;;;25.83;18.92;;;;;;;9.81;44.46;101969.75;7393077;19;20011;-59
2022/04/18 00:08:57;;;;;;;28.35;19.13;;;;;;;9.69;44.30;101970.91;7393089;19;20015;-60
2022/04/18 00:11:26;;;;;;;24.88;18.85;;;;;;;9.63;44.61;101969.28;7391298;19;20015;-59
2022/04/18 00:13:55;;;;;;;25.55;18.85;;;;;;;9.76;44.10;101969.03;7391693;19;20022;-59
2022/04/18 00:16:24;;;;;;;24.50;18.48;;;;;;;9.80;44.71;101966.28;7392800;19;20035;-59
2022/04/18 00:18:53;;;;;;;27.05;19.45;;;;;;;9.67;44.78;101962.22;7392932;19;20010;-60
2022/04/18 00:21:24;;;;;;;24.80;18.63;;;;;;;9.62;45.32;101966.69;7392168;19;20025;-60
2022/04/18 00:23:53;;;;;;;25.75;19.13;;;;;;;9.70;45.13;101970.00;7391548;19;20014;-58
2022/04/18 00:26:22;;;;;;;24.98;18.33;;;;;;;9.71;44.98;101969.09;7390572;19;20021;-58
2022/04/18 00:28:51;;;;;;;23.30;18.42;;;;;;;9.74;45.68;101958.56;7392197;19;20014;-60
2022/04/18 00:31:20;;;;;;;27.88;20.05;;;;;;;9.58;45.28;101963.28;7390335;19;20011;-54
2022/04/18 00:33:49;;;;;;;28.75;19.45;;;;;;;9.38;45.52;101955.84;7390390;19;20029;-57
2022/04/18 00:36:18;;;;;;;24.40;18.73;;;;;;;9.51;45.40;101961.69;7392442;19;20018;-62
2022/04/18 00:38:50;;;;;;;25.63;19.40;;;;;;;9.39;45.89;101954.13;7389559;19;20017;-61
2022/04/18 00:41:19;;;;;;;24.35;18.83;;;;;;;9.39;46.00;101965.44;7388459;19;20010;-62
2022/04/18 00:43:49;;;;;;;25.42;19.27;;;;;;;9.39;47.54;101957.56;7389136;19;20115;-62
2022/04/18 00:46:21;;;;;;;23.48;18.40;;;;;;;9.18;46.28;101962.38;7390487;19;20032;-61
2022/04/18 00:48:51;;;;;;;28.33;19.83;;;;;;;9.28;46.91;101957.78;7389730;19;20472;-63
2022/04/18 00:51:23;;;;;;;26.08;19.85;;;;;;;9.41;46.39;101963.63;7387590;19;20026;-62
2022/04/18 00:53:56;;;;;;;26.05;20.05;;;;;;;9.15;46.81;101956.31;7388787;19;20015;-61
2022/04/18 00:56:28;;;;;;;27.35;20.42;;;;;;;9.19;47.90;101952.75;7389756;19;20015;-61
2022/04/18 00:58:57;;;;;;;26.90;19.27;;;;;;;9.13;47.31;101953.75;7390169;19;20015;-61
2022/04/18 01:01:26;;;;;;;27.98;20.20;;;;;;;9.19;46.81;101950.16;7391419;19;20018;-60
2022/04/18 01:03:58;;;;;;;27.33;19.85;;;;;;;9.06;47.01;101949.53;7386910;19;20006;-60
2022/04/18 01:06:27;;;;;;;27.55;20.35;;;;;;;9.08;47.11;101949.50;7389865;19;20018;-60
2022/04/18 01:09:00;;;;;;;27.42;20.33;;;;;;;9.06;47.83;101943.44;7388836;19;20021;-61
2022/04/18 01:11:30;;;;;;;25.88;19.63;;;;;;;9.17;47.59;101942.34;7384998;19;20015;-60
2022/04/18 01:14:10;;;;;;;29.50;20.95;;;;;;;8.98;47.64;101939.22;7387944;19;20019;-61
2022/04/18 01:16:39;;;;;;;25.15;19.55;;;;;;;9.22;47.51;101939.63;7390533;19;20052;-59
2022/04/18 01:19:34;;;;;;;29.10;21.60;;;;;;;9.30;48.80;101940.31;7387644;19;20487;-61
2022/04/18 01:22:16;;;;;;;28.58;20.23;;;;;;;9.27;47.76;101942.13;7389161;19;20033;-61
2022/04/18 01:30:36;;;;;;;30.85;20.08;;;;;;;9.12;47.94;101944.16;7386856;19;20015;-61
2022/04/18 01:33:05;;;;;;;28.00;20.15;;;;;;;9.05;48.02;101941.72;7388887;19;20018;-60
2022/04/18 01:35:36;;;;;;;27.75;20.23;;;;;;;8.94;47.92;101934.06;7388185;19;20006;-61
2022/04/18 01:38:09;;;;;;;29.08;19.75;;;;;;;8.95;47.97;101941.88;7388122;19;20014;-61
2022/04/18 01:40:38;;;;;;;;;;;;;;;9.03;49.21;101935.63;7387747;19;20464;-62
2022/04/18 01:43:09;;;;;;;26.50;19.65;;;;;;;9.00;48.23;101937.44;7385652;19;19974;-61
2022/04/18 01:45:39;;;;;;;24.65;19.13;;;;;;;8.94;48.48;101932.34;7387545;19;20018;-59
2022/04/18 01:48:29;;;;;;;24.38;19.35;;;;;;;9.04;48.82;101924.28;7387106;19;20070;-60
2022/04/18 01:50:57;;;;;;;26.98;20.45;;;;;;;9.14;48.08;101929.31;7387908;19;20124;-61
2022/04/18 01:53:31;;;;;;;25.27;19.00;;;;;;;9.09;48.65;101930.31;7385161;19;20015;-62
2022/04/18 01:56:00;;;;;;;26.95;19.60;;;;;;;9.05;49.17;101928.66;7387003;19;20022;-61
2022/04/18 01:58:34;;;;;;;24.77;18.52;;;;;;;9.08;48.25;101928.56;7386560;19;20502;-60
2022/04/18 02:01:04;;;;;;;24.33;19.10;;;;;;;8.89;48.92;101923.72;7388030;19;20015;-63
2022/04/18 02:03:33;;;;;;;26.05;19.33;;;;;;;9.08;48.58;101928.56;7386070;19;20597;-61
2022/04/18 02:06:02;;;;;;;28.77;19.95;;;;;;;9.05;48.75;101918.19;7387551;19;20053;-61
2022/04/18 02:08:35;;;;;;;26.50;19.70;;;;;;;8.92;48.27;101918.41;7388899;19;20448;-59
2022/04/18 02:11:05;;;;;;;26.98;19.35;;;;;;;8.97;48.74;101916.59;7387771;19;20010;-61
2022/04/18 02:13:38;;;;;;;29.00;19.50;;;;;;;9.04;50.16;101924.28;7387205;19;20510;-61
2022/04/18 02:16:10;;;;;;;27.35;18.65;;;;;;;8.89;49.04;101921.09;7387868;19;20153;-60
2022/04/18 02:18:42;;;;;;;29.13;18.85;;;;;;;8.92;48.73;101914.94;7388421;19;20036;-61
2022/04/18 02:21:12;;;;;;;23.33;18.27;;;;;;;8.70;49.66;101907.53;7387127;19;20046;-60
2022/04/18 02:23:44;;;;;;;23.75;18.73;;;;;;;8.86;49.26;101910.72;7391578;19;20011;-60
2022/04/18 02:26:13;;;;;;;23.77;18.38;;;;;;;8.88;50.33;101908.06;7396743;19;20513;-60
2022/04/18 02:28:44;;;;;;;23.85;18.65;;;;;;;8.72;49.05;101910.97;7395292;19;20105;-60
2022/04/18 02:31:15;;;;;;;26.80;18.55;;;;;;;8.62;49.17;101907.66;7394496;19;20018;-61
2022/04/18 02:33:44;;;;;;;27.05;18.90;;;;;;;8.75;50.06;101908.28;7392849;19;20011;-60
2022/04/18 02:36:13;;;;;;;23.60;18.52;;;;;;;8.62;48.12;101910.28;7395857;19;20413;-61
2022/04/18 02:38:45;;;;;;;26.55;17.92;;;;;;;8.66;48.86;101909.31;7394483;19;20025;-61
2022/04/18 02:41:14;;;;;;;24.40;18.10;;;;;;;8.64;48.42;101898.06;7394058;19;20495;-60
2022/04/18 02:43:43;;;;;;;33.55;18.38;;;;;;;8.68;49.10;101904.06;7392628;19;20019;-60
2022/04/18 02:46:15;;;;;;;23.67;17.98;;;;;;;8.67;49.17;101889.31;7395479;19;20337;-61
2022/04/18 02:48:46;;;;;;;24.00;18.48;;;;;;;8.57;50.87;101892.97;7395378;19;20015;-61
2022/04/18 02:51:17;;;;;;;28.27;19.60;;;;;;;8.56;50.92;101886.03;7393753;19;20353;-61
2022/04/18 02:53:49;;;;;;;24.00;18.10;;;;;;;8.57;50.22;101892.97;7393455;19;20026;-61
2022/04/18 02:56:18;;;;;;;26.30;18.80;;;;;;;8.47;49.55;101889.69;7394359;19;20028;-60
2022/04/18 02:58:53;;;;;;;23.98;18.33;;;;;;;8.36;49.66;101891.59;7391421;19;20251;-60
2022/04/18 03:01:22;;;;;;;23.02;17.98;;;;;;;8.52;50.48;101890.44;7395771;19;20010;-59
2022/04/18 03:03:52;;;;;;;25.67;18.65;;;;;;;8.50;49.57;101887.00;7391819;19;20026;-61
2022/04/18 03:06:21;;;;;;;25.92;18.20;;;;;;;8.39;49.36;101875.84;7393279;19;20018;-60
2022/04/18 03:08:52;;;;;;;27.85;19.23;;;;;;;8.40;51.22;101877.59;7394694;19;20014;-61
2022/04/18 03:11:21;;;;;;;32.30;19.50;;;;;;;8.37;51.47;101875.00;7392876;19;20074;-62
2022/04/18 03:13:50;;;;;;;24.48;18.95;;;;;;;8.45;52.49;101876.66;7391114;19;20021;-60
2022/04/18 03:16:39;;;;;;;25.70;18.77;;;;;;;8.37;52.19;101867.16;7394526;19;20062;-60
2022/04/18 03:19:08;;;;;;;25.95;19.00;;;;;;;8.28;52.76;101873.41;7393047;19;20018;-59
2022/04/18 03:21:45;;;;;;;27.05;18.40;;;;;;;8.18;52.00;101871.88;7393551;19;20054;-60
2022/04/18 03:24:16;;;;;;;25.00;18.77;;;;;;;8.27;54.05;101876.94;7393105;19;20017;-61
2022/04/18 03:26:51;;;;;;;25.88;19.42;;;;;;;8.19;53.32;101865.75;7392119;19;20018;-60
2022/04/18 03:29:23;;;;;;;25.75;19.23;;;;;;;8.28;52.77;101863.84;7391518;19;20021;-61
2022/04/18 03:31:52;;;;;;;23.92;18.48;;;;;;;8.25;51.71;101870.88;7392244;19;20018;-61
2022/04/18 03:34:28;;;;;;;26.10;19.17;;;;;;;8.27;52.40;101869.09;7391207;19;20031;-61
2022/04/18 03:39:56;;;;;;;26.77;18.73;;;;;;;8.14;53.82;101863.25;7391390;19;20014;-62
2022/04/18 03:42:34;;;;;;;27.90;19.02;;;;;;;8.00;53.00;101862.63;7392895;19;20026;-56
2022/04/18 03:45:08;;;;;;;25.20;18.80;;;;;;;8.00;53.59;101865.22;7392355;19;20038;-61
2022/04/18 03:47:37;;;;;;;27.00;19.08;;;;;;;7.95;55.15;101860.06;7391432;19;20011;-58
2022/04/18 03:50:08;;;;;;;27.48;19.10;;;;;;;7.93;54.88;101859.22;7391536;19;20014;-61
2022/04/18 03:52:42;;;;;;;24.88;19.23;;;;;;;7.87;55.12;101854.97;7390115;19;20021;-61
2022/04/18 03:55:26;;;;;;;26.02;19.00;;;;;;;7.89;55.05;101857.56;7392409;19;20006;-59
2022/04/18 03:57:56;;;;;;;25.58;20.00;;;;;;;7.89;54.64;101858.41;7390977;19;20098;-62
2022/04/18 04:00:25;;;;;;;25.67;19.15;;;;;;;7.87;54.33;101849.75;7390637;19;20341;-60
2022/04/18 04:02:54;;;;;;;26.08;19.73;;;;;;;7.88;53.85;101856.72;7392177;19;20010;-59
2022/04/18 04:05:30;;;;;;;26.30;18.92;;;;;;;7.95;52.99;101852.22;7392672;19;20362;-57
2022/04/18 04:08:00;;;;;;;24.50;19.30;;;;;;;7.88;54.55;101850.59;7392447;19;20078;-58
2022/04/18 04:10:38;;;;;;;24.70;18.85;;;;;;;7.82;55.14;101848.94;7391700;19;20078;-60
2022/04/18 04:13:09;;;;;;;23.85;18.77;;;;;;;7.69;54.86;101858.72;7393653;19;20017;-59
2022/04/18 04:15:57;;;;;;;25.23;18.95;;;;;;;7.73;53.72;101852.56;7400077;19;20014;-58
2022/04/18 04:18:29;;;;;;;;;;;;;;;7.70;52.18;101855.25;7400916;19;20014;-59
2022/04/18 04:21:04;;;;;;;26.95;19.52;;;;;;;7.76;53.64;101857.75;7398329;19;19922;-59
2022/04/18 04:23:33;;;;;;;26.08;19.58;;;;;;;7.79;54.47;101849.88;7394302;19;20011;-59
2022/04/18 04:26:28;;;;;;;25.08;18.95;;;;;;;7.71;56.06;101854.38;7391963;19;20038;-59
2022/04/18 04:28:57;;;;;;;26.00;19.85;;;;;;;7.66;54.95;101850.94;7393222;19;20018;-60
2022/04/18 04:31:34;;;;;;;26.70;19.35;;;;;;;7.77;54.17;101866.44;7391998;19;20015;-57
2022/04/18 04:34:03;;;;;;;26.83;19.40;;;;;;;7.76;55.45;101859.50;7389884;19;20018;-57
2022/04/18 04:36:35;;;;;;;24.92;19.50;;;;;;;7.70;55.78;101867.44;7391776;19;20007;-59
2022/04/18 04:39:05;;;;;;;26.00;19.40;;;;;;;7.70;54.78;101870.03;7391516;19;20017;-59
2022/04/18 04:41:44;;;;;;;24.92;18.98;;;;;;;7.61;54.38;101868.44;7390804;19;20497;-58
2022/04/18 04:44:12;;;;;;;26.85;18.90;;;;;;;7.59;55.66;101863.25;7390130;19;20007;-58
2022/04/18 04:46:59;;;;;;;23.70;18.77;;;;;;;7.66;52.71;101870.97;7391003;19;20018;-58
2022/04/18 04:49:30;;;;;;;28.15;18.73;;;;;;;7.66;52.76;101869.22;7389712;19;20022;-58
2022/04/18 04:52:18;;;;;;;24.75;18.85;;;;;;;7.64;52.35;101865.78;7392086;19;20018;-59
2022/04/18 04:54:49;;;;;;;25.50;18.75;;;;;;;7.61;52.25;101874.50;7391478;19;20018;-59
2022/04/18 04:57:26;;;;;;;25.17;19.05;;;;;;;7.67;51.34;101878.78;7390506;19;20094;-58
2022/04/18 05:00:14;;;;;;;25.75;18.88;;;;;;;7.67;52.26;101870.94;7391041;19;20018;-59
2022/04/18 05:03:08;;;;;;;27.15;18.58;;;;;;;7.62;51.67;101859.69;7387947;19;20145;-59
2022/04/18 05:05:38;;;;;;;25.25;19.30;;;;;;;7.59;51.69;101860.63;7389940;19;20015;-60
2022/04/18 05:08:13;;;;;;;28.10;18.63;;;;;;;7.63;51.98;101864.91;7390272;19;20026;-55
2022/04/18 05:10:42;;;;;;;25.80;19.25;;;;;;;7.62;52.02;101862.31;7390262;19;20011;-54
2022/04/18 05:13:22;;;;;;;25.05;18.00;;;;;;;7.77;51.45;101864.69;7389082;19;20411;-58
2022/04/18 05:15:51;;;;;;;24.38;18.83;;;;;;;7.63;51.71;101861.44;7391284;19;20014;-53
2022/04/18 05:18:40;;;;;;;27.20;19.13;;;;;;;7.76;51.52;101864.72;7391701;19;20017;-54
2022/04/18 05:21:10;;;;;;;26.77;18.27;;;;;;;7.78;51.39;101863.81;7389434;19;20014;-58
2022/04/18 05:23:40;;;;;;;26.25;18.27;;;;;;;7.89;51.24;101858.41;7387749;19;20045;-55
2022/04/18 05:26:09;;;;;;;24.80;18.45;;;;;;;7.90;51.26;101862.75;7389814;19;20022;-56
2022/04/18 05:28:44;;;;;;;33.17;19.25;;;;;;;7.78;50.56;101871.63;7389466;19;20396;-53
2022/04/18 05:31:12;;;;;;;27.48;19.10;;;;;;;8.05;51.18;101868.59;7388814;19;20341;-54
2022/04/18 05:33:42;;;;;;;25.17;17.80;;;;;;;8.07;50.26;101875.53;7388190;19;20018;-55
2022/04/18 05:36:37;;;;;;;23.38;17.90;;;;;;;8.04;50.14;101874.69;7389840;19;20022;-53
2022/04/18 05:39:11;;;;;;;27.85;17.48;;;;;;;8.03;50.46;101868.63;7388727;19;20042;-54
2022/04/18 05:41:45;;;;;;;24.77;17.30;;;;;;;7.78;50.54;101873.41;7391229;19;20483;-53
2022/04/18 05:44:21;;;;;;;25.60;18.05;;;;;;;8.04;51.03;101869.47;7390545;19;20014;-53
2022/04/18 05:47:02;;;;;;;26.00;18.50;;;;;;;8.18;50.72;101875.34;7390282;19;20017;-59
2022/04/18 05:49:32;;;;;;;24.23;17.05;;;;;;;8.16;50.42;101871.88;7388662;19;20018;-56
2022/04/18 05:52:04;;;;;;;24.88;17.88;;;;;;;8.30;50.51;101874.28;7387826;19;20026;-55
2022/04/18 05:54:34;;;;;;;24.08;17.50;;;;;;;8.38;50.12;101875.00;7388390;19;20808;-53
2022/04/18 05:57:06;;;;;;;23.25;17.58;;;;;;;8.39;51.11;101879.31;7387593;19;20033;-53
2022/04/18 05:59:48;;;;;;;28.52;17.05;;;;;;;8.42;50.53;101881.00;7395906;19;20018;-55
2022/04/18 06:02:20;;;;;;;22.42;17.27;;;;;;;8.40;50.47;101882.81;7396950;19;20102;-53
2022/04/18 06:05:01;;;;;;;25.13;18.23;;;;;;;8.48;50.28;101884.41;7396732;19;20029;-56
2022/04/18 06:07:48;;;;;;;22.13;17.20;;;;;;;8.41;49.70;101881.91;7397992;19;20026;-53
2022/04/18 06:10:52;;;;;;;23.77;17.58;;;;;;;8.48;50.76;101875.69;7393330;19;21054;-53
2022/04/18 06:13:40;;;;;;;21.77;16.33;;;;;;;8.51;49.81;101885.25;7395264;19;20077;-53
2022/04/18 06:16:12;;;;;;;23.67;16.90;;;;;;;8.52;50.60;101886.97;7396484;19;20018;-54
2022/04/18 06:18:43;;;;;;;22.27;17.08;;;;;;;8.59;49.76;101889.44;7395960;19;20018;-58
2022/04/18 06:21:14;;;;;;;22.40;15.75;;;;;;;8.63;49.92;101895.47;7395308;19;20325;-59
2022/04/18 06:23:45;;;;;;;22.42;16.17;;;;;;;8.78;49.72;101882.13;7393428;19;20014;-59
2022/04/18 06:26:33;;;;;;;21.42;15.98;;;;;;;8.79;48.82;101873.38;7395901;19;20014;-61
2022/04/18 06:29:03;;;;;;;22.17;16.00;;;;;;;9.04;49.65;101878.13;7395208;19;20020;-60
2022/04/18 06:31:36;;;;;;;21.00;14.80;;;;;;;9.04;48.46;101883.34;7395796;19;20018;-59
2022/04/18 06:34:07;;;;;;;20.92;15.05;;;;;;;9.24;47.98;101880.31;7392536;19;20118;-58
2022/04/18 06:36:39;;;;;;;17.70;13.63;;;;;;;9.29;48.20;101885.44;7395937;19;20033;-59
2022/04/18 06:39:21;;;;;;;19.13;13.03;;;;;;;9.20;45.90;101880.38;7395213;19;20495;-61
2022/04/18 06:41:55;;;;;;;13.98;9.85;;;;;;;9.29;46.32;101883.66;7395977;19;20025;-59
2022/04/18 06:44:27;;;;;;;14.05;10.40;;;;;;;9.31;44.82;101884.50;7395821;19;20018;-58
2022/04/18 06:46:59;;;;;;;14.60;10.65;;;;;;;9.45;45.69;101883.34;7395105;19;20340;-58
2022/04/18 06:49:47;;;;;;;15.15;10.80;;;;;;;9.60;45.41;101876.88;7400982;19;20011;-57
2022/04/18 06:52:41;;;;;;;16.52;11.68;;;;;;;9.64;45.49;101876.78;7393376;19;20052;-57
2022/04/18 06:56:58;;;;;;;15.52;10.98;;;;;;;9.68;45.39;101875.81;7398501;19;20045;-59
2022/04/18 06:58:20;;;;;;;15.73;10.00;;;;;;;9.84;45.04;101873.72;7394178;19;20014;-57
2022/04/18 07:00:49;;;;;;;18.67;12.05;;;;;;;9.74;45.84;101877.41;7395234;19;20007;-58
2022/04/18 07:03:22;;;;;;;17.08;11.10;;;;;;;9.73;45.13;101870.47;7393157;19;20010;-59
2022/04/18 07:05:52;;;;;;;12.77;10.02;;;;;;;10.02;44.23;101868.91;7394670;19;20048;-59
2022/04/18 07:08:20;;;;;;;14.85;11.02;;;;;;;10.19;44.58;101871.09;7396182;19;20014;-58
2022/04/18 07:10:50;;;;;;;14.50;11.75;;;;;;;10.30;44.48;101881.28;7393906;19;20022;-59
2022/04/18 07:13:19;;;;;;;15.93;11.70;;;;;;;10.11;45.09;101875.66;7394801;19;20014;-59
2022/04/18 07:15:50;;;;;;;15.98;12.50;;;;;;;10.19;45.52;101877.19;7395785;19;20014;-58
2022/04/18 07:18:23;;;;;;;17.63;13.05;;;;;;;10.38;46.28;101876.75;7395847;19;20018;-59
2022/04/18 07:20:52;;;;;;;17.98;12.80;;;;;;;10.40;45.82;101874.94;7393732;19;20457;-58
2022/04/18 07:23:21;;;;;;;16.92;12.93;;;;;;;10.37;46.31;101872.41;7392954;19;20018;-59
2022/04/18 07:25:57;;;;;;;17.25;13.15;;;;;;;10.59;46.46;101877.06;7394260;19;20469;-58
2022/04/18 07:28:30;;;;;;;18.73;13.05;;;;;;;10.58;46.00;101877.97;7394186;19;20011;-58
2022/04/18 07:31:00;;;;;;;16.08;12.35;;;;;;;10.68;45.75;101876.81;7393565;19;20022;-59
2022/04/18 07:33:31;;;;;;;16.27;12.23;;;;;;;10.79;45.88;101868.63;7392606;19;20029;-57
2022/04/18 07:36:01;;;;;;;15.68;12.23;;;;;;;10.88;46.15;101876.25;7394222;19;20015;-58
2022/04/18 07:41:12;;;;;;;15.82;12.32;;;;;;;11.25;46.25;101877.81;7392884;19;20046;-54
2022/04/18 07:43:46;;;;;;;16.52;12.30;;;;;;;11.42;45.28;101878.16;7391471;19;20022;-56
2022/04/18 07:46:17;;;;;;;14.13;10.52;;;;;;;11.46;45.25;101871.03;7393957;19;20487;-59
2022/04/18 07:48:52;;;;;;;10.50;7.43;;;;;;;11.48;44.36;101865.75;7393229;19;20018;-57
2022/04/18 07:51:35;;;;;;;9.13;7.20;;;;;;;11.27;43.75;101865.50;7393260;19;20014;-58
2022/04/18 07:54:07;;;;;;;10.63;7.38;;;;;;;11.51;43.45;101869.13;7391225;19;20038;-56
2022/04/18 07:56:38;;;;;;;11.07;7.30;;;;;;;11.77;42.68;101873.53;7394512;19;20018;-57
2022/04/18 07:59:07;;;;;;;9.98;6.90;;;;;;;11.71;42.67;101863.25;7394256;19;20458;-58
2022/04/18 08:01:40;;;;;;;13.85;7.53;;;;;;;11.85;43.47;101859.28;7396362;19;20099;-60
2022/04/18 08:04:19;;;;;;;9.00;6.40;;;;;;;11.97;43.60;101858.09;7394081;19;20078;-59
2022/04/18 08:06:48;;;;;;;10.98;6.38;;;;;;;12.13;42.98;101861.06;7393250;19;20122;-60
2022/04/18 08:09:21;;;;;;;12.50;6.47;;;;;;;12.02;42.40;101861.41;7393222;19;20015;-59
2022/04/18 08:11:51;;;;;;;10.00;6.75;;;;;;;12.09;43.13;101857.66;7394378;19;20010;-61
2022/04/18 08:14:28;;;;;;;8.40;6.57;;;;;;;12.24;43.10;101859.75;7392061;19;20010;-58
2022/04/18 08:17:07;;;;;;;8.85;6.30;;;;;;;12.36;41.99;101858.47;7393709;19;20022;-59
2022/04/18 08:19:50;;;;;;;8.65;6.60;;;;;;;12.47;42.63;101860.75;7393138;19;20017;-58
2022/04/18 08:22:19;;;;;;;7.78;6.28;;;;;;;12.43;41.91;101861.75;7391918;19;20018;-58
2022/04/18 08:25:08;;;;;;;8.57;5.88;;;;;;;12.62;42.87;101862.81;7394202;19;20249;-59
2022/04/18 08:28:13;;;;;;;9.75;6.75;;;;;;;12.66;42.93;101866.19;7396771;19;20133;-58
2022/04/18 08:30:42;;;;;;;10.73;6.07;;;;;;;12.69;42.72;101860.81;7393089;19;20608;-59
2022/04/18 08:33:45;;;;;;;7.47;5.72;;;;;;;13.08;42.32;101860.25;7396059;19;20448;-59
2022/04/18 08:36:17;;;;;;;8.90;5.72;;;;;;;13.23;41.28;101861.44;7392433;19;20025;-60
2022/04/18 08:38:46;;;;;;;10.35;5.93;;;;;;;13.37;40.55;101854.78;7392418;19;20317;-59
2022/04/18 08:41:39;;;;;;;10.85;5.63;;;;;;;13.40;40.89;101857.34;7394315;19;20018;-59
2022/04/18 08:44:15;;;;;;;26.02;7.00;;;;;;;13.53;41.78;101853.28;7391361;19;20023;-58
2022/04/18 08:46:44;;;;;;;7.30;5.30;;;;;;;13.67;40.40;101858.84;7392041;19;20011;-59
2022/04/18 08:54:45;;;;;;;7.47;5.70;;;;;;;13.79;40.41;101856.63;7389991;19;20026;-59
2022/04/18 08:57:15;;;;;;;7.63;4.97;;;;;;;13.96;40.18;101856.78;7391350;19;20025;-60
2022/04/18 08:59:44;;;;;;;7.90;5.30;;;;;;;14.28;39.28;101853.69;7390299;19;20007;-56
2022/04/18 09:02:13;;;;;;;7.63;4.80;;;;;;;14.35;38.58;101852.50;7394563;19;20026;-59
2022/04/18 09:05:11;;;;;;;6.65;4.88;;;;;;;14.45;38.67;101848.53;7391674;19;20014;-60
2022/04/18 09:07:44;;;;;;;6.63;4.80;;;;;;;14.64;39.59;101847.75;7391560;19;20015;-58
2022/04/18 09:10:14;;;;;;;9.55;4.88;;;;;;;14.72;38.13;101839.50;7390332;19;20014;-56
2022/04/18 09:12:44;;;;;;;6.80;4.93;;;;;;;14.83;38.78;101847.81;7390528;19;20029;-59
2022/04/18 09:15:38;;;;;;;8.70;5.30;;;;;;;15.04;37.97;101838.88;7389833;19;20460;-57
2022/04/18 09:18:15;;;;;;;5.88;4.68;;;;;;;15.15;37.60;101838.38;7391879;19;20011;-62
2022/04/18 09:20:53;;;;;;;6.00;4.70;;;;;;;14.93;36.57;101835.00;7390390;19;20045;-60
2022/04/18 09:23:30;;;;;;;7.57;4.40;;;;;;;14.88;37.11;101835.22;7388840;19;20033;-59
2022/04/18 09:26:13;;;;;;;7.75;4.35;;;;;;;15.44;37.13;101827.34;7390849;19;20016;-57
2022/04/18 09:28:43;;;;;;;7.78;4.68;;;;;;;15.70;35.52;101833.97;7390977;19;20007;-60
2022/04/18 09:31:19;;;;;;;7.97;4.60;;;;;;;15.40;35.46;101829.25;7390071;19;20017;-58
2022/04/18 09:33:55;;;;;;;;;;;;;;;15.20;36.45;101817.00;7386031;19;20018;-59
2022/04/18 09:36:25;;;;;;;7.30;4.57;;;;;;;15.25;36.80;101822.94;7390041;19;20536;-61
2022/04/18 09:38:59;;;;;;;6.55;4.80;;;;;;;15.25;35.43;101820.31;7390068;19;20014;-61
2022/04/18 09:42:10;;;;;;;7.65;4.32;;;;;;;15.80;35.71;101822.03;7390035;19;20010;-60
2022/04/18 09:45:11;;;;;;;5.50;4.40;;;;;;;16.01;35.79;101821.91;7390873;19;20010;-61
2022/04/18 09:47:44;;;;;;;8.77;4.40;;;;;;;16.22;35.97;101819.94;7389569;19;20026;-59
2022/04/18 09:50:58;;;;;;;5.53;4.40;;;;;;;16.06;34.14;101815.44;7388970;19;20015;-56
2022/04/18 09:53:20;;;;;;;6.30;4.57;;;;;;;16.01;35.90;101813.97;7388343;19;20608;-59
2022/04/18 09:55:54;;;;;;;6.72;4.60;;;;;;;16.08;34.86;101810.91;7388385;19;20015;-59
2022/04/18 09:58:23;;;;;;;6.55;4.78;;;;;;;16.33;34.62;101808.78;7391317;19;20511;-58
2022/04/18 10:00:52;;;;;;;8.90;4.55;;;;;;;16.42;35.11;101806.50;7393040;19;20023;-59
2022/04/18 10:03:22;;;;;;;5.93;4.82;;;;;;;16.87;34.72;101812.03;7389530;19;20030;-58
2022/04/18 10:05:52;;;;;;;5.43;4.40;;;;;;;16.57;35.00;101809.28;7391827;19;20040;-58
2022/04/18 10:08:21;;;;;;;6.85;4.70;;;;;;;16.71;33.79;101800.59;7390711;19;20499;-58
2022/04/18 10:10:53;;;;;;;9.88;4.90;;;;;;;16.91;33.42;101803.03;7389006;19;20018;-54
2022/04/18 10:13:22;;;;;;;7.10;4.57;;;;;;;16.98;33.95;101787.66;7388599;19;20015;-59
2022/04/18 10:15:52;;;;;;;6.40;4.30;;;;;;;17.19;33.01;101793.53;7388742;19;20018;-60
2022/04/18 10:18:21;;;;;;;6.90;4.70;;;;;;;17.23;32.20;101797.72;7391322;19;20516;-61
2022/04/18 10:21:13;;;;;;;5.03;4.10;;;;;;;16.86;32.84;101801.53;7391287;19;20479;-55
2022/04/18 10:24:13;;;;;;;7.65;4.40;;;;;;;17.14;32.78;101790.31;7388245;19;20030;-58
2022/04/18 10:27:09;;;;;;;12.57;4.70;;;;;;;17.00;32.54;101796.38;7390473;19;20044;-62
2022/04/18 10:29:42;;;;;;;7.30;4.53;;;;;;;17.25;32.87;101794.97;7389497;19;20011;-59
2022/04/18 10:32:13;;;;;;;;;;;;;;;17.61;32.55;101785.88;7390539;19;20014;-59
2022/04/18 10:34:42;;;;;;;6.38;4.18;;;;;;;17.39;32.18;101780.94;7390306;19;19931;-60
2022/04/18 10:37:12;;;;;;;4.90;4.25;;;;;;;17.37;32.14;101788.13;7390625;19;20010;-58
2022/04/18 10:39:41;;;;;;;6.90;4.32;;;;;;;17.27;31.84;101785.16;7389445;19;20021;-60
2022/04/18 10:42:30;;;;;;;11.63;4.40;;;;;;;17.61;32.12;101780.56;7389114;19;20475;-56
2022/04/18 10:45:00;;;;;;;6.22;4.00;;;;;;;17.61;30.42;101777.91;7395488;19;20022;-59
2022/04/18 10:47:29;;;;;;;5.18;3.90;;;;;;;17.35;31.55;101782.94;7394761;19;20014;-59
2022/04/18 10:50:22;;;;;;;6.82;4.15;;;;;;;17.46;30.98;101779.66;7396583;19;20444;-58
2022/04/18 10:53:07;;;;;;;;;;;;;;;17.54;30.85;101776.56;7395900;19;20034;-59
2022/04/18 10:55:35;;;;;;;12.90;4.40;;;;;;;17.51;31.25;101774.94;7394337;19;19934;-59
2022/04/18 10:58:15;;;;;;;5.07;4.00;;;;;;;17.83;30.16;101777.47;7394456;19;20022;-60
2022/04/18 11:00:49;;;;;;;4.88;3.72;;;;;;;18.00;29.66;101771.22;7396368;19;20018;-60
2022/04/18 11:03:54;;;;;;;6.95;3.28;;;;;;;18.21;29.38;101774.34;7393978;19;20018;-60
2022/04/18 11:06:52;;;;;;;5.15;4.07;;;;;;;17.83;29.77;101766.03;7396421;19;20013;-58
2022/04/18 11:09:25;;;;;;;4.78;3.78;;;;;;;18.03;28.67;101776.31;7395797;19;20391;-59
2022/04/18 11:12:05;;;;;;;8.13;4.40;;;;;;;18.16;27.83;101766.66;7395648;19;20019;-61
2022/04/18 11:14:52;;;;;;;5.70;3.83;;;;;;;18.55;28.28;101774.06;7394997;19;20010;-60
2022/04/18 11:17:32;;;;;;;4.95;3.50;;;;;;;18.55;26.41;101776.69;7396468;19;20014;-60
2022/04/18 11:20:31;;;;;;;4.00;3.40;;;;;;;18.46;26.29;101764.88;7397486;19;20017;-61
2022/04/18 11:23:19;;;;;;;6.10;3.75;;;;;;;18.55;25.65;101764.28;7394195;19;20042;-58
2022/04/18 11:25:59;;;;;;;8.75;4.00;;;;;;;18.88;25.89;101759.59;7396563;19;20337;-58
2022/04/18 11:28:35;;;;;;;4.65;3.78;;;;;;;18.89;26.49;101753.34;7396288;19;20016;-59
2022/04/18 11:31:10;;;;;;;11.07;4.10;;;;;;;18.65;26.20;101753.94;7393618;19;20021;-59
2022/04/18 11:33:43;;;;;;;6.97;4.65;;;;;;;18.76;26.75;101750.59;7393901;19;20531;-59
2022/04/18 11:36:13;;;;;;;;;;;;;;;18.93;27.71;101750.41;7394850;19;20495;-61
2022/04/18 11:38:42;;;;;;;7.03;4.78;;;;;;;18.44;27.66;101759.66;7396237;19;19915;-56
2022/04/18 11:41:12;;;;;;;5.90;4.90;;;;;;;18.73;27.87;101746.34;7395088;19;20037;-55
2022/04/18 11:43:41;;;;;;;7.18;5.13;;;;;;;19.21;29.15;101747.72;7393164;19;20018;-53
2022/04/18 11:46:13;;;;;;;7.18;5.30;;;;;;;19.15;27.97;101751.66;7395200;19;20060;-57
2022/04/18 11:48:42;;;;;;;8.45;4.63;;;;;;;18.95;27.98;101748.47;7395130;19;20018;-58
2022/04/18 11:51:10;;;;;;;7.35;4.95;;;;;;;19.31;28.06;101749.69;7394000;19;20018;-57
2022/04/18 11:53:39;;;;;;;6.97;4.95;;;;;;;19.08;27.53;101742.38;7393136;19;20029;-59
2022/04/18 11:56:09;;;;;;;7.55;5.00;;;;;;;19.12;27.71;101741.22;7390758;19;20018;-59
2022/04/18 11:58:40;;;;;;;6.57;4.80;;;;;;;19.58;27.51;101738.13;7394699;19;20014;-58
2022/04/18 12:06:50;;;;;;;7.22;5.53;;;;;;;19.56;27.81;101737.41;7393722;19;20071;-62
2022/04/18 12:09:23;;;;;;;5.15;4.63;;;;;;;19.49;28.01;101734.31;7393976;19;20010;-63
2022/04/18 12:11:52;;;;;;;6.40;5.05;;;;;;;19.35;27.94;101735.22;7393566;19;20030;-61
2022/04/18 12:14:21;;;;;;;7.57;5.43;;;;;;;19.02;27.72;101733.00;7392073;19;20522;-64
2022/04/18 12:16:50;;;;;;;6.75;5.10;;;;;;;18.97;27.78;101733.31;7392464;19;20021;-61
2022/04/18 12:19:22;;;;;;;6.53;5.18;;;;;;;19.59;28.88;101729.22;7392587;19;20010;-62